createdAt,value
2022-08-31T00:02:37.354Z,99041.58
2022-08-31T00:08:25.311Z,99032.80
2022-08-31T00:13:37.226Z,99038.33
2022-08-31T00:19:09.909Z,99040.27
2022-08-31T00:24:42.647Z,99046.02
2022-08-31T00:30:47.083Z,99041.27
2022-08-31T00:36:27.304Z,99042.00
2022-08-31T00:41:48.805Z,99036.48
2022-08-31T00:47:46.678Z,99039.91
2022-08-31T00:53:41.464Z,99038.00
2022-08-31T00:59:37.480Z,99038.56
2022-08-31T01:05:09.182Z,99033.92
2022-08-31T01:11:13.337Z,99029.17
2022-08-31T01:16:53.337Z,99028.29
2022-08-31T01:23:12.161Z,99028.99
2022-08-31T01:28:51.383Z,99021.66
2022-08-31T01:34:49.351Z,99025.30
2022-08-31T01:41:23.181Z,99023.45
2022-08-31T01:46:58.124Z,99016.79
2022-08-31T01:52:59.801Z,99011.77
2022-08-31T01:59:24.612Z,99011.20
2022-08-31T02:05:46.309Z,99009.30
2022-08-31T02:11:39.741Z,99012.20
2022-08-31T02:17:17.815Z,99015.15
2022-08-31T02:23:13.952Z,99014.88
2022-08-31T02:29:24.195Z,99013.13
2022-08-31T02:35:18.151Z,99010.65
2022-08-31T02:41:00.297Z,99006.95
2022-08-31T02:46:19.514Z,99006.11
2022-08-31T02:52:02.834Z,99002.20
2022-08-31T02:57:25.163Z,98996.30
2022-08-31T03:02:32.080Z,98993.95
2022-08-31T03:08:31.220Z,98993.85
2022-08-31T03:13:45.818Z,98999.20
2022-08-31T03:19:08.234Z,98999.16
2022-08-31T03:25:18.095Z,98996.12
2022-08-31T03:30:31.450Z,99010.23
2022-08-31T03:36:10.186Z,99022.85
2022-08-31T03:41:52.072Z,99019.07
2022-08-31T03:47:32.628Z,99012.98
2022-08-31T03:53:11.254Z,99019.17
2022-08-31T03:58:47.023Z,99020.19
2022-08-31T04:04:07.216Z,99020.27
2022-08-31T04:10:30.938Z,99021.52
2022-08-31T04:16:09.259Z,99022.83
2022-08-31T04:21:56.165Z,99025.13
2022-08-31T04:27:13.137Z,99026.49
2022-08-31T04:33:48.839Z,99028.17
2022-08-31T04:39:05.972Z,99032.77
2022-08-31T04:44:20.100Z,99034.89
2022-08-31T04:49:34.186Z,99042.45
2022-08-31T04:55:09.747Z,99047.86
2022-08-31T05:00:53.722Z,99054.34
2022-08-31T05:06:13.784Z,99050.39
2022-08-31T05:11:39.861Z,99052.48
2022-08-31T05:17:25.270Z,99055.69
2022-08-31T05:23:26.339Z,99070.41
2022-08-31T05:28:44.285Z,99074.29
2022-08-31T05:34:44.574Z,99077.48
2022-08-31T05:40:07.475Z,99083.11
2022-08-31T05:45:58.917Z,99079.48
2022-08-31T05:51:46.258Z,99077.55
2022-08-31T05:58:13.723Z,99084.14
2022-08-31T06:04:42.990Z,99087.82
2022-08-31T06:10:05.514Z,99096.48
2022-08-31T06:15:13.972Z,99100.48
2022-08-31T06:20:39.596Z,99098.90
2022-08-31T06:25:54.765Z,99103.13
2022-08-31T06:30:56.999Z,99105.71
2022-08-31T06:35:59.340Z,99108.83
2022-08-31T06:41:36.361Z,99108.27
2022-08-31T06:47:08.294Z,99114.98
2022-08-31T06:52:20.514Z,99117.20
2022-08-31T06:57:35.642Z,99123.47
2022-08-31T07:03:24.875Z,99127.38
2022-08-31T07:08:51.864Z,99126.86
2022-08-31T07:14:00.108Z,99126.60
2022-08-31T07:19:27.434Z,99135.21
2022-08-31T07:24:35.423Z,99141.05
2022-08-31T07:30:00.651Z,99142.52
2022-08-31T07:35:15.370Z,99145.17
2022-08-31T07:40:49.406Z,99148.51
2022-08-31T07:45:55.594Z,99155.98
2022-08-31T07:51:00.554Z,99164.85
2022-08-31T07:56:21.949Z,99169.03
2022-08-31T08:01:32.385Z,99168.52
2022-08-31T08:06:39.478Z,99164.29
2022-08-31T08:12:01.145Z,99163.40
2022-08-31T08:17:50.813Z,99165.45
2022-08-31T08:22:58.528Z,99168.83
2022-08-31T08:28:40.274Z,99175.45
2022-08-31T08:33:46.139Z,99180.06
2022-08-31T08:38:57.512Z,99180.95
2022-08-31T08:44:23.101Z,99180.14
2022-08-31T08:50:23.074Z,99180.41
2022-08-31T08:56:17.256Z,99172.40
2022-08-31T09:01:30.628Z,99165.56
2022-08-31T09:06:46.062Z,99165.20
2022-08-31T09:12:14.048Z,99158.66
2022-08-31T09:17:31.097Z,99151.59
2022-08-31T09:23:01.907Z,99143.67
2022-08-31T09:28:29.578Z,99141.19
2022-08-31T09:33:55.851Z,99140.02
2022-08-31T09:39:34.502Z,99136.69
2022-08-31T09:44:43.400Z,99145.90
2022-08-31T09:49:55.564Z,99141.25
2022-08-31T09:55:27.831Z,99136.65
2022-08-31T10:01:52.506Z,99137.92
2022-08-31T10:07:42.126Z,99132.04
2022-08-31T10:13:15.576Z,99131.69
2022-08-31T10:18:53.100Z,99129.13
2022-08-31T10:24:55.904Z,99125.45
2022-08-31T10:30:30.713Z,99127.31
2022-08-31T10:36:16.333Z,99124.76
2022-08-31T10:41:29.039Z,99121.13
2022-08-31T10:46:35.655Z,99115.21
2022-08-31T10:51:46.863Z,99120.33
2022-08-31T10:57:39.354Z,99117.73
2022-08-31T11:03:23.262Z,99118.36
2022-08-31T11:08:35.341Z,99120.72
2022-08-31T11:14:07.423Z,99115.55
2022-08-31T11:20:12.642Z,99110.46
2022-08-31T11:25:56.098Z,99105.61
2022-08-31T11:31:01.770Z,99101.75
2022-08-31T11:36:12.727Z,99098.40
2022-08-31T11:41:35.884Z,99098.08
2022-08-31T11:46:39.800Z,99091.06
2022-08-31T11:51:55.762Z,99094.38
2022-08-31T11:57:15.842Z,99090.56
2022-08-31T12:02:41.239Z,99088.77
2022-08-31T12:07:50.684Z,99092.43
2022-08-31T12:13:09.822Z,99093.83
2022-08-31T12:18:43.073Z,99086.89
2022-08-31T12:24:15.355Z,99080.65
2022-08-31T12:29:40.412Z,99070.94
2022-08-31T12:35:07.122Z,99068.19
2022-08-31T12:40:34.542Z,99065.10
2022-08-31T12:46:15.601Z,99059.51
2022-08-31T12:52:03.476Z,99054.27
2022-08-31T12:57:14.284Z,99054.89
2022-08-31T13:02:38.125Z,99051.05
2022-08-31T13:07:47.773Z,99054.77
2022-08-31T13:12:53.535Z,99052.80
2022-08-31T13:18:30.762Z,99048.72
2022-08-31T13:23:46.671Z,99049.63
2022-08-31T13:29:07.726Z,99049.89
2022-08-31T13:34:12.372Z,99051.39
2022-08-31T13:39:35.463Z,99052.85
2022-08-31T13:45:19.469Z,99052.53
2022-08-31T13:50:52.634Z,99049.48
2022-08-31T13:56:55.021Z,99050.39
2022-08-31T14:02:30.772Z,99049.21
2022-08-31T14:08:07.450Z,99050.87
2022-08-31T14:14:25.553Z,99046.73
2022-08-31T14:20:06.863Z,99044.41
2022-08-31T14:25:22.212Z,99041.25
2022-08-31T14:30:35.720Z,99039.92
2022-08-31T14:36:14.743Z,99042.02
2022-08-31T14:41:19.321Z,99041.84
2022-08-31T14:46:31.510Z,99037.76
2022-08-31T14:51:42.047Z,99032.02
2022-08-31T14:56:58.294Z,99033.54
2022-08-31T15:02:13.825Z,99032.77
2022-08-31T15:07:19.800Z,99031.27
2022-08-31T15:12:22.494Z,99026.20
2022-08-31T15:17:36.807Z,99030.55
2022-08-31T15:22:45.137Z,99025.54
2022-08-31T15:27:51.866Z,99021.34
2022-08-31T15:33:01.506Z,99014.54
2022-08-31T15:38:36.875Z,99017.14
2022-08-31T15:44:33.060Z,99012.02
2022-08-31T15:50:02.719Z,99017.65
2022-08-31T15:55:31.845Z,99016.85
2022-08-31T16:01:09.975Z,99014.90
2022-08-31T16:06:40.446Z,99011.13
2022-08-31T16:12:10.452Z,99011.23
2022-08-31T16:17:21.479Z,99007.72
2022-08-31T16:22:33.198Z,99008.92
2022-08-31T16:27:59.910Z,99010.86
2022-08-31T16:33:12.418Z,99003.55
2022-08-31T16:38:25.975Z,99003.91
2022-08-31T16:43:30.917Z,99005.64
2022-08-31T16:49:15.212Z,99010.13
2022-08-31T16:55:16.122Z,99015.59
2022-08-31T17:01:00.584Z,99013.70
2022-08-31T17:06:05.599Z,99014.66
2022-08-31T17:11:22.575Z,99016.52
2022-08-31T17:17:02.924Z,99022.34
2022-08-31T17:22:25.625Z,99027.67
2022-08-31T17:27:59.816Z,99030.88
2022-08-31T17:33:17.642Z,99035.98
2022-08-31T17:38:55.223Z,99043.23
2022-08-31T17:44:05.047Z,99042.58
2022-08-31T17:49:25.061Z,99048.52
2022-08-31T17:55:02.020Z,99054.06
2022-08-31T18:00:50.789Z,99054.70
2022-08-31T18:06:03.650Z,99059.92
2022-08-31T18:11:34.056Z,99067.83
2022-08-31T18:16:39.582Z,99070.45
2022-08-31T18:22:03.750Z,99070.70
2022-08-31T18:27:53.664Z,99072.41
2022-08-31T18:33:37.990Z,99070.45
2022-08-31T18:38:57.579Z,99075.48
2022-08-31T18:44:34.965Z,99074.80
2022-08-31T18:50:44.692Z,99075.59
2022-08-31T18:56:41.280Z,99076.49
2022-08-31T19:02:33.561Z,99080.91
2022-08-31T19:08:20.623Z,99081.33
2022-08-31T19:13:46.677Z,99079.08
2022-08-31T19:19:16.902Z,99085.46
2022-08-31T19:24:40.851Z,99077.27
2022-08-31T19:30:33.507Z,99074.77
2022-08-31T19:36:26.573Z,99065.98
2022-08-31T19:42:16.496Z,99055.99
2022-08-31T19:48:01.285Z,99059.89
2022-08-31T19:53:50.897Z,99063.49
2022-08-31T19:59:21.202Z,99067.96
2022-08-31T20:04:42.547Z,99069.98
2022-08-31T20:09:54.611Z,99069.00
2022-08-31T20:14:56.700Z,99070.98
2022-08-31T20:20:57.545Z,99075.29
2022-08-31T20:26:52.709Z,99077.97
2022-08-31T20:32:19.222Z,99078.05
2022-08-31T20:38:06.533Z,99078.20
2022-08-31T20:43:39.916Z,99073.35
2022-08-31T20:49:26.608Z,99076.05
2022-08-31T20:56:17.947Z,99074.89
2022-08-31T21:02:09.919Z,99079.29
2022-08-31T21:07:57.523Z,99080.53
2022-08-31T21:13:37.455Z,99075.27
2022-08-31T21:19:52.914Z,99077.81
2022-08-31T21:26:39.541Z,99076.60
2022-08-31T21:32:53.073Z,99074.38
2022-08-31T21:39:13.882Z,99079.16
2022-08-31T21:45:18.847Z,99073.50
2022-08-31T21:51:15.096Z,99068.33
2022-08-31T21:57:57.174Z,99073.23
2022-08-31T22:04:40.677Z,99074.05
2022-08-31T22:11:01.357Z,99074.10
2022-08-31T22:18:04.778Z,99073.27
2022-08-31T22:24:29.933Z,99071.41
2022-08-31T22:31:03.364Z,99069.94
2022-08-31T22:37:49.598Z,99067.58
2022-08-31T22:44:29.840Z,99066.61
2022-08-31T22:50:25.823Z,99061.96
2022-08-31T22:56:49.899Z,99064.27
2022-08-31T23:02:52.577Z,99061.71
2022-08-31T23:09:44.106Z,99058.21
2022-08-31T23:15:46.673Z,99060.68
2022-08-31T23:22:28.718Z,99058.33
2022-08-31T23:28:49.690Z,99056.10
2022-08-31T23:35:16.912Z,99056.63
2022-08-31T23:42:02.545Z,99056.07
2022-08-31T23:48:08.163Z,99054.73
2022-08-31T23:53:50.925Z,99050.98
